Ana Sayfa
METAR-TAF:

METAR-TAF

Havaalanları :

Balıkesir Merkez Havalimanı

Balıkesir, Türkiye

Enlem: 39-37N, Boylam: 027-55E, yükseklik: 101 m

Güncel hava durumu gözlemi

Rapor saat 11:50 UTC de 1 saat ve 3 dakika önce yapıldı.
Sakin rüzgar
Sıcaklık 12°C
Nem 67%
Basınç 1022 hPa
Görüş mesafesi: 8000 m

METAR: LTBF 191150Z 00000KT 8000 NSC 12/06 Q1022 NOSIG

Saat: 15:53 (12:53 UTC)

Tahmin

Rapor saat 10:40 UTC de 2 saat ve 13 dakika önce yapıldı.
Ayın 19'si saat 12 UTC'den ayın 19'si saat 21 UTC'ye kadar geçerli Tahmin
Rüzgar değişken yönden 2 kt
Görüş mesafesi 10 km veya daha fazla
1500 m altında bulut yok ve kümülonimbus yok

TAF: LTBF 191040Z 1912/1921 VRB02KT CAVOK

4.000'den fazla havaalanı için hava durumu gözlemleri ve tahminleri (METAR ve TAF raporları).

Kullanılabilir istasyonlar harita üzerinde sarı ve kırmızı noktalarla gösterilir.

İstasyonun adını görmek için fareyi noktanın üzerinde gezdirin.

Sonrasında hava gözlem ve tahminlerini görmek için tıklayın.

Haritayı değiştirmek için: yaklaştırmak için siyah artı işaretli yeşil düğmeye ve uzaklaştırmak için de eksi işaretli düğmeye hızla tıklayın; bitişik haritalar için yeşil okları kullanın.


METAR-TAF: